createdAt,value
2023-04-12T00:01:11.397Z,14.35
2023-04-12T00:03:40.056Z,11.95
2023-04-12T00:06:07.947Z,12.73
2023-04-12T00:08:35.690Z,13.93
2023-04-12T00:11:04.067Z,11.20
2023-04-12T00:13:31.239Z,13.73
2023-04-12T00:16:00.202Z,15.85
2023-04-12T00:18:27.953Z,14.70
2023-04-12T00:20:58.194Z,24.13
2023-04-12T00:23:25.567Z,11.93
2023-04-12T00:25:52.654Z,14.23
2023-04-12T00:28:19.794Z,18.60
2023-04-12T00:30:47.985Z,12.95
2023-04-12T00:33:15.107Z,13.07
2023-04-12T00:35:42.182Z,10.68
2023-04-12T00:38:16.325Z,13.85
2023-04-12T00:40:46.645Z,14.68
2023-04-12T00:43:18.763Z,14.10
2023-04-12T00:45:50.009Z,10.50
2023-04-12T00:48:17.667Z,11.43
2023-04-12T00:50:47.708Z,11.27
2023-04-12T00:53:20.272Z,9.15
2023-04-12T00:55:50.181Z,14.27
2023-04-12T00:58:17.750Z,13.05
2023-04-12T01:00:53.197Z,13.95
2023-04-12T01:03:25.005Z,11.68
2023-04-12T01:06:14.178Z,13.98
2023-04-12T01:08:58.044Z,10.90
2023-04-12T01:11:45.178Z,12.15
2023-04-12T01:14:30.135Z,7.82
2023-04-12T01:17:05.707Z,10.00
2023-04-12T01:19:37.812Z,7.97
2023-04-12T01:22:33.816Z,15.55
2023-04-12T01:25:07.730Z,12.45
2023-04-12T01:28:04.603Z,9.70
2023-04-12T01:30:32.905Z,7.70
2023-04-12T01:33:07.080Z,9.45
2023-04-12T01:35:35.542Z,9.98
2023-04-12T01:38:04.671Z,11.18
2023-04-12T01:40:32.750Z,7.18
2023-04-12T01:43:06.830Z,12.38
2023-04-12T01:45:34.822Z,8.13
2023-04-12T01:48:08.598Z,12.98
2023-04-12T01:50:44.999Z,6.30
2023-04-12T01:53:20.207Z,11.95
2023-04-12T01:55:57.259Z,14.48
2023-04-12T01:58:27.302Z,7.03
2023-04-12T02:00:56.118Z,10.10
2023-04-12T02:03:27.682Z,7.38
2023-04-12T02:05:58.400Z,8.60
2023-04-12T02:08:26.484Z,7.72
2023-04-12T02:10:56.179Z,12.75
2023-04-12T02:13:25.766Z,12.60
2023-04-12T02:15:55.982Z,15.25
2023-04-12T02:18:27.596Z,14.45
2023-04-12T02:20:56.795Z,10.73
2023-04-12T02:23:24.027Z,12.90
2023-04-12T02:25:53.871Z,10.55
2023-04-12T02:28:23.270Z,20.33
2023-04-12T02:30:53.987Z,10.98
2023-04-12T02:33:28.492Z,15.27
2023-04-12T02:35:58.071Z,14.75
2023-04-12T02:38:28.190Z,17.38
2023-04-12T02:40:59.068Z,23.10
2023-04-12T02:43:28.220Z,17.83
2023-04-12T02:46:01.172Z,21.70
2023-04-12T02:48:31.194Z,21.02
2023-04-12T02:51:01.654Z,18.00
2023-04-12T02:53:31.551Z,17.17
2023-04-12T02:56:12.339Z,22.45
2023-04-12T02:58:42.799Z,28.77
2023-04-12T03:04:07.757Z,23.67
2023-04-12T03:06:52.945Z,29.33
2023-04-12T03:09:27.343Z,20.58
2023-04-12T03:11:56.138Z,27.73
2023-04-12T03:14:26.170Z,21.70
2023-04-12T03:16:53.789Z,24.48
2023-04-12T03:19:21.385Z,22.90
2023-04-12T03:21:55.283Z,18.88
2023-04-12T03:24:22.908Z,18.50
2023-04-12T03:26:52.444Z,20.33
2023-04-12T03:29:27.112Z,18.55
2023-04-12T03:31:56.253Z,20.35
2023-04-12T03:34:23.444Z,27.73
2023-04-12T03:36:56.027Z,18.98
2023-04-12T03:39:36.901Z,18.93
2023-04-12T03:42:05.951Z,17.73
2023-04-12T03:44:34.110Z,22.33
2023-04-12T03:47:07.454Z,12.45
2023-04-12T03:49:38.663Z,14.52
2023-04-12T03:52:10.785Z,20.25
2023-04-12T03:54:39.938Z,14.63
2023-04-12T03:57:10.482Z,21.00
2023-04-12T03:59:41.527Z,14.75
2023-04-12T04:02:09.842Z,25.17
2023-04-12T04:04:44.360Z,13.50
2023-04-12T04:07:14.575Z,15.18
2023-04-12T04:09:44.813Z,12.02
2023-04-12T04:12:12.640Z,19.60
2023-04-12T04:14:45.355Z,28.30
2023-04-12T04:17:19.649Z,17.05
2023-04-12T04:19:47.797Z,16.80
2023-04-12T04:22:18.115Z,21.40
2023-04-12T04:24:46.123Z,15.27
2023-04-12T04:27:16.024Z,27.75
2023-04-12T04:29:47.209Z,15.93
2023-04-12T04:32:17.182Z,15.77
2023-04-12T04:34:46.382Z,23.85
2023-04-12T04:37:19.316Z,16.30
2023-04-12T04:39:48.547Z,20.35
2023-04-12T04:42:15.816Z,17.02
2023-04-12T04:45:06.734Z,25.08
2023-04-12T04:47:41.415Z,20.58
2023-04-12T04:50:11.686Z,23.85
2023-04-12T04:52:39.759Z,18.92
2023-04-12T04:55:14.066Z,20.15
2023-04-12T04:57:45.509Z,18.63
2023-04-12T05:00:18.476Z,21.13
2023-04-12T05:02:53.521Z,16.42
2023-04-12T05:05:29.541Z,22.60
2023-04-12T05:08:06.827Z,20.40
2023-04-12T05:10:35.921Z,20.00
2023-04-12T05:13:03.698Z,19.35
2023-04-12T05:15:32.180Z,18.48
2023-04-12T05:18:01.123Z,22.95
2023-04-12T05:20:37.004Z,22.80
2023-04-12T05:23:08.559Z,24.55
2023-04-12T05:25:38.868Z,27.30
2023-04-12T05:28:19.252Z,25.75
2023-04-12T05:30:50.710Z,20.95
2023-04-12T05:33:22.672Z,30.27
2023-04-12T05:35:56.908Z,32.53
2023-04-12T05:38:29.212Z,34.45
2023-04-12T05:41:09.098Z,27.50
2023-04-12T05:43:41.574Z,30.33
2023-04-12T05:46:17.250Z,33.35
2023-04-12T05:48:55.224Z,33.60
2023-04-12T05:51:43.583Z,30.13
2023-04-12T05:54:25.793Z,30.90
2023-04-12T05:57:02.383Z,32.28
2023-04-12T05:59:56.531Z,27.58
2023-04-12T06:02:34.708Z,27.60
2023-04-12T06:07:52.586Z,29.75
2023-04-12T06:10:29.263Z,28.42
2023-04-12T06:12:57.144Z,30.83
2023-04-12T06:15:27.421Z,28.98
2023-04-12T06:18:04.000Z,33.50
2023-04-12T06:20:39.989Z,40.70
2023-04-12T06:23:29.328Z,26.10
2023-04-12T06:26:07.571Z,31.55
2023-04-12T06:28:39.981Z,28.50
2023-04-12T06:31:22.154Z,23.55
2023-04-12T06:33:51.077Z,31.88
2023-04-12T06:36:29.492Z,29.95
2023-04-12T06:39:08.417Z,37.05
2023-04-12T06:41:43.867Z,35.45
2023-04-12T06:44:14.134Z,30.95
2023-04-12T06:46:59.309Z,25.40
2023-04-12T06:49:27.344Z,23.98
2023-04-12T06:54:59.725Z,30.75
2023-04-12T06:57:34.735Z,32.42
2023-04-12T07:00:06.361Z,31.48
2023-04-12T07:02:41.517Z,29.65
2023-04-12T07:05:14.915Z,31.60
2023-04-12T07:07:48.640Z,32.63
2023-04-12T07:10:26.708Z,39.50
2023-04-12T07:13:07.938Z,25.55
2023-04-12T07:15:38.303Z,28.67
2023-04-12T07:18:15.976Z,61.65
2023-04-12T07:20:44.059Z,40.95
2023-04-12T07:23:15.635Z,30.73
2023-04-12T07:25:58.698Z,49.70
2023-04-12T07:28:42.552Z,35.90
2023-04-12T07:31:24.353Z,35.47
2023-04-12T07:34:01.192Z,31.40
2023-04-12T07:36:35.140Z,31.00
2023-04-12T07:39:15.898Z,36.63
2023-04-12T07:44:41.596Z,32.47
2023-04-12T07:47:11.245Z,30.80
2023-04-12T07:49:55.174Z,29.13
2023-04-12T07:52:29.137Z,24.50
2023-04-12T07:55:01.357Z,17.35
2023-04-12T07:57:42.048Z,12.43
2023-04-12T08:00:19.218Z,16.10
2023-04-12T08:02:54.879Z,17.52
2023-04-12T08:05:29.807Z,18.88
2023-04-12T08:08:13.031Z,17.58
2023-04-12T08:13:13.602Z,11.57
2023-04-12T08:15:41.673Z,21.25
2023-04-12T08:18:09.230Z,11.48
2023-04-12T08:20:39.098Z,19.65
2023-04-12T08:23:07.394Z,17.50
2023-04-12T08:25:35.165Z,13.70
2023-04-12T08:28:13.796Z,23.13
2023-04-12T08:30:47.076Z,25.67
2023-04-12T08:33:20.174Z,18.17
2023-04-12T08:35:47.547Z,19.33
2023-04-12T08:38:14.952Z,15.85
2023-04-12T08:40:48.499Z,16.67
2023-04-12T08:45:53.321Z,11.40
2023-04-12T08:48:23.128Z,18.33
2023-04-12T08:50:55.409Z,17.98
2023-04-12T08:53:26.147Z,21.40
2023-04-12T08:55:54.241Z,17.15
2023-04-12T08:58:23.909Z,13.98
2023-04-12T09:01:00.201Z,12.47
2023-04-12T09:03:33.676Z,28.10
2023-04-12T09:06:04.304Z,22.90
2023-04-12T09:08:31.911Z,17.98
2023-04-12T09:10:59.559Z,16.63
2023-04-12T09:13:40.218Z,18.60
2023-04-12T09:16:11.126Z,12.95
2023-04-12T09:19:05.750Z,16.55
2023-04-12T09:21:40.068Z,16.73
2023-04-12T09:24:15.174Z,10.38
2023-04-12T09:26:42.510Z,14.10
2023-04-12T09:29:26.002Z,18.73
2023-04-12T09:32:03.377Z,18.02
2023-04-12T09:34:33.624Z,10.88
2023-04-12T09:37:19.300Z,14.88
2023-04-12T09:40:01.188Z,17.02
2023-04-12T09:42:36.395Z,19.25
2023-04-12T09:45:24.450Z,15.35
2023-04-12T09:47:52.808Z,9.85
2023-04-12T09:53:20.251Z,12.48
2023-04-12T09:56:08.113Z,11.20
2023-04-12T09:59:05.559Z,12.30
2023-04-12T10:01:49.272Z,13.20
2023-04-12T10:04:25.989Z,11.52
2023-04-12T10:07:03.341Z,26.63
2023-04-12T10:09:39.667Z,11.07
2023-04-12T10:12:22.064Z,14.10
2023-04-12T10:15:18.449Z,15.43
2023-04-12T10:18:03.506Z,9.23
2023-04-12T10:20:47.925Z,8.50
2023-04-12T10:24:12.419Z,9.55
2023-04-12T10:26:50.710Z,12.70
2023-04-12T10:29:35.079Z,14.60
2023-04-12T10:32:28.608Z,16.95
2023-04-12T10:35:18.148Z,19.98
2023-04-12T10:38:06.141Z,17.13
2023-04-12T10:43:57.835Z,15.18
2023-04-12T10:46:40.872Z,11.80
2023-04-12T10:49:23.380Z,9.02
2023-04-12T10:52:03.070Z,10.13
2023-04-12T10:54:41.549Z,6.68
2023-04-12T10:57:45.731Z,11.95
2023-04-12T11:00:20.644Z,19.00
2023-04-12T11:03:13.092Z,10.60
2023-04-12T11:06:20.191Z,13.05
2023-04-12T11:09:29.060Z,12.07
2023-04-12T11:12:14.876Z,16.30
2023-04-12T11:14:47.822Z,23.42
2023-04-12T11:17:17.791Z,11.38
2023-04-12T11:19:47.387Z,10.48
2023-04-12T11:22:16.637Z,10.13
2023-04-12T11:24:49.826Z,25.17
2023-04-12T11:27:28.732Z,14.65
2023-04-12T11:30:01.289Z,17.00
2023-04-12T11:32:39.492Z,30.03
2023-04-12T11:35:27.803Z,18.02
2023-04-12T11:38:04.084Z,12.93
2023-04-12T11:40:39.958Z,21.50
2023-04-12T11:43:07.213Z,10.90
2023-04-12T11:45:41.513Z,15.10
2023-04-12T11:48:18.060Z,17.70
2023-04-12T11:50:48.351Z,15.30
2023-04-12T11:53:27.893Z,19.23
2023-04-12T11:56:03.072Z,14.75
2023-04-12T11:58:36.402Z,11.65
2023-04-12T12:01:11.351Z,17.50
2023-04-12T12:03:42.343Z,9.43
2023-04-12T12:06:39.461Z,13.60
2023-04-12T12:09:07.481Z,8.75
2023-04-12T12:11:42.806Z,11.95
2023-04-12T12:14:15.992Z,18.85
2023-04-12T12:16:55.903Z,13.10
2023-04-12T12:19:37.781Z,15.18
2023-04-12T12:22:40.889Z,8.30
2023-04-12T12:25:15.332Z,18.63
2023-04-12T12:27:51.696Z,12.00
2023-04-12T12:30:25.215Z,11.35
2023-04-12T12:32:59.788Z,16.75
2023-04-12T12:35:33.490Z,12.15
2023-04-12T12:41:48.818Z,10.68
2023-04-12T12:44:43.481Z,16.58
2023-04-12T12:47:25.967Z,11.10
2023-04-12T12:49:55.085Z,16.92
2023-04-12T12:52:27.566Z,33.13
2023-04-12T12:55:13.056Z,12.70
2023-04-12T12:58:05.857Z,9.38
2023-04-12T13:00:42.028Z,7.85
2023-04-12T13:03:20.157Z,9.07
2023-04-12T13:05:54.267Z,15.30
2023-04-12T13:08:35.346Z,13.30
2023-04-12T13:11:12.421Z,19.35
2023-04-12T13:13:58.324Z,13.55
2023-04-12T13:16:40.662Z,15.43
2023-04-12T13:19:53.125Z,12.43
2023-04-12T13:22:21.490Z,14.40
2023-04-12T13:24:54.544Z,7.57
2023-04-12T13:27:26.070Z,13.48
2023-04-12T13:29:57.178Z,11.00
2023-04-12T13:32:25.081Z,8.32
2023-04-12T13:34:52.672Z,14.48
2023-04-12T13:37:21.736Z,7.28
2023-04-12T13:39:55.042Z,11.57
2023-04-12T13:42:25.772Z,8.60
2023-04-12T13:44:53.203Z,5.45
2023-04-12T13:47:23.647Z,10.50
2023-04-12T13:49:54.058Z,11.75
2023-04-12T13:52:21.596Z,8.05
2023-04-12T13:54:51.476Z,9.55
2023-04-12T13:57:18.994Z,10.68
2023-04-12T13:59:46.356Z,5.65
2023-04-12T14:02:14.425Z,16.48
2023-04-12T14:04:52.763Z,12.27
2023-04-12T14:07:20.888Z,14.45
2023-04-12T14:09:51.981Z,11.07
2023-04-12T14:12:19.297Z,10.50
2023-04-12T14:14:46.871Z,10.40
2023-04-12T14:17:15.088Z,15.70
2023-04-12T14:19:51.288Z,4.10
2023-04-12T14:22:18.571Z,9.02
2023-04-12T14:24:46.578Z,8.23
2023-04-12T14:27:18.331Z,6.85
2023-04-12T14:29:46.275Z,17.75
2023-04-12T14:32:13.596Z,5.95
2023-04-12T14:34:44.050Z,9.65
2023-04-12T14:37:14.158Z,6.72
2023-04-12T14:39:46.012Z,3.58
2023-04-12T14:42:17.008Z,7.07
2023-04-12T14:44:46.747Z,6.22
2023-04-12T14:47:17.672Z,7.03
2023-04-12T14:49:57.807Z,4.43
2023-04-12T14:52:25.715Z,4.05
2023-04-12T14:54:53.441Z,5.35
2023-04-12T14:57:20.976Z,7.43
2023-04-12T14:59:51.795Z,24.42
2023-04-12T15:02:22.183Z,10.35
2023-04-12T15:04:52.740Z,10.63
2023-04-12T15:07:20.235Z,17.35
2023-04-12T15:09:51.191Z,10.82
2023-04-12T15:12:21.281Z,11.82
2023-04-12T15:14:52.961Z,5.15
2023-04-12T15:17:21.275Z,2.45
2023-04-12T15:19:51.267Z,5.43
2023-04-12T15:22:19.297Z,9.65
2023-04-12T15:24:47.127Z,13.30
2023-04-12T15:27:21.198Z,5.82
2023-04-12T15:30:04.922Z,17.50
2023-04-12T15:32:41.986Z,13.50
2023-04-12T15:35:26.177Z,7.72
2023-04-12T15:38:02.366Z,5.57
2023-04-12T15:40:30.531Z,2.88
2023-04-12T15:43:01.401Z,9.93
2023-04-12T15:45:43.564Z,8.18
2023-04-12T15:48:17.347Z,4.93
2023-04-12T15:50:56.174Z,11.25
2023-04-12T15:53:28.664Z,11.45
2023-04-12T15:55:56.521Z,9.93
2023-04-12T15:58:27.071Z,18.63
2023-04-12T16:00:54.737Z,8.40
2023-04-12T16:03:29.292Z,9.38
2023-04-12T16:06:25.954Z,14.82
2023-04-12T16:09:05.328Z,12.32
2023-04-12T16:12:10.874Z,13.02
2023-04-12T16:14:44.366Z,8.65
2023-04-12T16:17:24.753Z,15.50
2023-04-12T16:20:01.044Z,14.15
2023-04-12T16:22:41.759Z,13.02
2023-04-12T16:25:12.460Z,8.02
2023-04-12T16:27:40.046Z,12.73
2023-04-12T16:30:10.599Z,12.05
2023-04-12T16:32:37.893Z,12.27
2023-04-12T16:35:09.128Z,9.20
2023-04-12T16:37:40.682Z,13.70
2023-04-12T16:40:13.110Z,12.68
2023-04-12T16:42:46.949Z,18.00
2023-04-12T16:45:23.334Z,9.68
2023-04-12T16:47:57.762Z,10.13
2023-04-12T16:50:38.645Z,9.57
2023-04-12T16:53:11.565Z,18.63
2023-04-12T16:55:49.144Z,12.55
2023-04-12T16:58:16.723Z,12.70
2023-04-12T17:00:50.858Z,15.50
2023-04-12T17:03:24.249Z,10.60
2023-04-12T17:05:58.073Z,17.25
2023-04-12T17:08:32.152Z,13.85
2023-04-12T17:11:06.560Z,11.77
2023-04-12T17:16:22.268Z,20.77
2023-04-12T17:18:56.746Z,14.75
2023-04-12T17:21:27.491Z,10.75
2023-04-12T17:24:12.045Z,18.50
2023-04-12T17:26:49.059Z,21.23
2023-04-12T17:29:25.367Z,9.90
2023-04-12T17:31:54.331Z,13.38
2023-04-12T17:34:43.291Z,8.82
2023-04-12T17:37:17.577Z,12.30
2023-04-12T17:39:45.104Z,10.70
2023-04-12T17:42:15.063Z,9.77
2023-04-12T17:44:44.832Z,14.05
2023-04-12T17:47:23.321Z,6.60
2023-04-12T17:49:57.624Z,10.52
2023-04-12T17:52:41.644Z,19.30
2023-04-12T17:55:19.646Z,18.23
2023-04-12T17:57:51.797Z,26.55
2023-04-12T18:00:25.525Z,22.17
2023-04-12T18:05:22.049Z,15.88
2023-04-12T18:07:57.252Z,13.45
2023-04-12T18:10:26.977Z,17.27
2023-04-12T18:12:57.511Z,10.27
2023-04-12T18:15:28.543Z,10.70
2023-04-12T18:18:02.320Z,12.55
2023-04-12T18:20:33.484Z,9.43
2023-04-12T18:23:04.281Z,12.38
2023-04-12T18:25:39.053Z,11.90
2023-04-12T18:28:10.858Z,14.10
2023-04-12T18:30:42.175Z,14.68
2023-04-12T18:33:13.230Z,12.55
2023-04-12T18:35:45.397Z,10.68
2023-04-12T18:41:20.546Z,8.68
2023-04-12T18:43:47.814Z,14.43
2023-04-12T18:46:20.926Z,16.73
2023-04-12T18:48:59.609Z,10.40
2023-04-12T18:51:37.352Z,12.48
2023-04-12T18:54:11.596Z,14.02
2023-04-12T18:56:47.264Z,14.88
2023-04-12T18:59:25.279Z,8.13
2023-04-12T19:02:00.693Z,14.15
2023-04-12T19:04:32.040Z,12.02
2023-04-12T19:07:00.714Z,14.48
2023-04-12T19:09:41.383Z,7.05
2023-04-12T19:12:14.497Z,10.45
2023-04-12T19:14:45.158Z,12.98
2023-04-12T19:17:14.022Z,14.45
2023-04-12T19:19:47.533Z,11.40
2023-04-12T19:24:56.336Z,11.68
2023-04-12T19:27:31.236Z,10.35
2023-04-12T19:30:09.990Z,16.15
2023-04-12T19:32:45.253Z,12.18
2023-04-12T19:35:26.851Z,10.70
2023-04-12T19:38:04.967Z,10.85
2023-04-12T19:40:37.187Z,13.55
2023-04-12T19:43:08.678Z,9.38
2023-04-12T19:45:49.694Z,12.15
2023-04-12T19:48:17.486Z,11.25
2023-04-12T19:50:50.591Z,14.13
2023-04-12T19:53:28.166Z,9.50
2023-04-12T19:56:02.397Z,13.63
2023-04-12T19:58:30.251Z,11.07
2023-04-12T20:01:00.746Z,7.45
2023-04-12T20:03:29.622Z,8.70
2023-04-12T20:06:02.091Z,13.35
2023-04-12T20:08:34.692Z,14.43
2023-04-12T20:11:10.999Z,13.15
2023-04-12T20:13:51.969Z,15.60
2023-04-12T20:16:30.028Z,20.45
2023-04-12T20:19:05.036Z,19.30
2023-04-12T20:21:40.127Z,23.25
2023-04-12T20:26:55.109Z,24.40
2023-04-12T20:29:25.051Z,19.95
2023-04-12T20:31:58.548Z,16.02
2023-04-12T20:34:37.701Z,20.63
2023-04-12T20:37:09.944Z,20.85
2023-04-12T20:39:38.397Z,20.08
2023-04-12T20:42:09.458Z,15.35
2023-04-12T20:44:42.125Z,22.50
2023-04-12T20:47:14.197Z,24.45
2023-04-12T20:49:43.053Z,21.73
2023-04-12T20:52:13.973Z,14.85
2023-04-12T20:54:42.578Z,19.52
2023-04-12T20:57:23.475Z,24.25
2023-04-12T21:00:05.804Z,17.65
2023-04-12T21:02:33.543Z,16.05
2023-04-12T21:05:06.738Z,24.45
2023-04-12T21:07:45.155Z,11.20
2023-04-12T21:10:12.478Z,13.27
2023-04-12T21:12:41.279Z,21.20
2023-04-12T21:15:12.459Z,14.55
2023-04-12T21:17:43.065Z,14.73
2023-04-12T21:22:58.221Z,7.95
2023-04-12T21:25:28.762Z,8.60
2023-04-12T21:27:59.943Z,6.10
2023-04-12T21:33:04.545Z,11.75
2023-04-12T21:35:36.667Z,10.85
2023-04-12T21:38:08.493Z,9.25
2023-04-12T21:40:37.534Z,8.57
2023-04-12T21:43:04.819Z,10.05
2023-04-12T21:45:36.176Z,15.80
2023-04-12T21:48:04.165Z,12.57
2023-04-12T21:50:32.234Z,6.57
2023-04-12T21:53:00.093Z,7.38
2023-04-12T21:55:28.775Z,12.60
2023-04-12T21:57:56.136Z,13.07
2023-04-12T22:00:25.060Z,13.85
2023-04-12T22:02:52.481Z,12.02
2023-04-12T22:05:22.693Z,13.45
2023-04-12T22:07:50.765Z,16.17
2023-04-12T22:10:21.205Z,17.58
2023-04-12T22:12:50.653Z,14.43
2023-04-12T22:15:26.322Z,17.35
2023-04-12T22:17:54.283Z,25.98
2023-04-12T22:20:22.026Z,18.75
2023-04-12T22:22:52.344Z,14.48
2023-04-12T22:25:22.371Z,11.05
2023-04-12T22:27:49.916Z,10.55
2023-04-12T22:30:18.417Z,22.65
2023-04-12T22:32:52.091Z,9.23
2023-04-12T22:35:20.807Z,14.88
2023-04-12T22:37:52.572Z,12.30
2023-04-12T22:40:22.804Z,12.32
2023-04-12T22:42:50.793Z,11.77
2023-04-12T22:45:18.320Z,6.13
2023-04-12T22:47:46.093Z,23.45
2023-04-12T22:50:14.233Z,13.65
2023-04-12T22:52:53.269Z,11.30
2023-04-12T22:55:24.854Z,19.08
2023-04-12T22:57:53.540Z,10.43
2023-04-12T23:00:24.607Z,8.40
2023-04-12T23:02:54.093Z,10.05
2023-04-12T23:05:21.510Z,14.98
2023-04-12T23:07:52.540Z,9.30
2023-04-12T23:12:53.821Z,8.70
2023-04-12T23:15:25.032Z,7.63
2023-04-12T23:17:52.699Z,12.05
2023-04-12T23:20:23.634Z,15.27
2023-04-12T23:22:57.887Z,14.65
2023-04-12T23:25:39.459Z,15.05
2023-04-12T23:28:20.588Z,13.45
2023-04-12T23:30:52.138Z,16.77
2023-04-12T23:33:21.272Z,17.52
2023-04-12T23:35:52.959Z,9.80
2023-04-12T23:38:24.820Z,10.27
2023-04-12T23:40:55.825Z,7.10
2023-04-12T23:43:27.162Z,19.52
2023-04-12T23:45:58.089Z,9.57
2023-04-12T23:48:44.324Z,7.88
2023-04-12T23:51:14.978Z,10.70
2023-04-12T23:53:43.965Z,9.85
2023-04-12T23:56:14.549Z,21.23
